sensor_id;sensor_type;location;lat;lon;timestamp;temperature;humidity
13462;DHT22;6803;45.264;5.468;2023-05-07T00:01:27;15.20;99.90
13462;DHT22;6803;45.264;5.468;2023-05-07T00:03:58;15.20;99.90
13462;DHT22;6803;45.264;5.468;2023-05-07T00:06:29;15.20;99.90
13462;DHT22;6803;45.264;5.468;2023-05-07T00:09:00;15.30;99.90
13462;DHT22;6803;45.264;5.468;2023-05-07T00:11:33;15.30;99.90
13462;DHT22;6803;45.264;5.468;2023-05-07T00:14:05;15.20;99.90
13462;DHT22;6803;45.264;5.468;2023-05-07T00:16:36;15.30;99.90
13462;DHT22;6803;45.264;5.468;2023-05-07T00:19:07;15.20;99.90
13462;DHT22;6803;45.264;5.468;2023-05-07T00:21:38;15.00;99.90
13462;DHT22;6803;45.264;5.468;2023-05-07T00:24:08;15.00;99.90
13462;DHT22;6803;45.264;5.468;2023-05-07T00:26:39;15.00;99.90
13462;DHT22;6803;45.264;5.468;2023-05-07T00:29:09;15.00;99.90
13462;DHT22;6803;45.264;5.468;2023-05-07T00:31:41;14.80;99.90
13462;DHT22;6803;45.264;5.468;2023-05-07T00:34:12;14.70;99.90
13462;DHT22;6803;45.264;5.468;2023-05-07T00:36:43;14.70;99.90
13462;DHT22;6803;45.264;5.468;2023-05-07T00:39:13;14.40;99.90
13462;DHT22;6803;45.264;5.468;2023-05-07T00:41:44;14.50;99.90
13462;DHT22;6803;45.264;5.468;2023-05-07T00:44:15;14.50;99.90
13462;DHT22;6803;45.264;5.468;2023-05-07T00:46:47;14.40;99.90
13462;DHT22;6803;45.264;5.468;2023-05-07T00:49:19;14.50;99.90
13462;DHT22;6803;45.264;5.468;2023-05-07T00:51:51;14.50;99.90
13462;DHT22;6803;45.264;5.468;2023-05-07T00:54:22;14.60;99.90
13462;DHT22;6803;45.264;5.468;2023-05-07T00:56:53;14.80;99.90
13462;DHT22;6803;45.264;5.468;2023-05-07T00:59:24;14.90;99.90
13462;DHT22;6803;45.264;5.468;2023-05-07T01:01:55;14.70;99.90
13462;DHT22;6803;45.264;5.468;2023-05-07T01:04:27;14.70;99.90
13462;DHT22;6803;45.264;5.468;2023-05-07T01:06:59;14.60;99.90
13462;DHT22;6803;45.264;5.468;2023-05-07T01:09:32;14.70;99.90
13462;DHT22;6803;45.264;5.468;2023-05-07T01:12:05;14.70;99.90
13462;DHT22;6803;45.264;5.468;2023-05-07T01:14:37;14.70;99.90
13462;DHT22;6803;45.264;5.468;2023-05-07T01:17:07;14.80;99.90
13462;DHT22;6803;45.264;5.468;2023-05-07T01:19:39;14.90;99.90
13462;DHT22;6803;45.264;5.468;2023-05-07T01:22:10;14.80;99.90
13462;DHT22;6803;45.264;5.468;2023-05-07T01:24:42;14.80;99.90
13462;DHT22;6803;45.264;5.468;2023-05-07T01:27:13;14.70;99.90
13462;DHT22;6803;45.264;5.468;2023-05-07T01:29:43;14.60;99.90
13462;DHT22;6803;45.264;5.468;2023-05-07T01:32:14;14.50;99.90
13462;DHT22;6803;45.264;5.468;2023-05-07T01:34:47;14.70;99.90
13462;DHT22;6803;45.264;5.468;2023-05-07T01:37:18;14.60;99.90
13462;DHT22;6803;45.264;5.468;2023-05-07T01:39:50;14.50;99.90
13462;DHT22;6803;45.264;5.468;2023-05-07T01:42:21;14.60;99.90
13462;DHT22;6803;45.264;5.468;2023-05-07T01:44:51;14.60;99.90
13462;DHT22;6803;45.264;5.468;2023-05-07T01:47:22;14.50;99.90
13462;DHT22;6803;45.264;5.468;2023-05-07T01:49:53;14.20;99.90
13462;DHT22;6803;45.264;5.468;2023-05-07T01:52:24;14.00;99.90
13462;DHT22;6803;45.264;5.468;2023-05-07T01:54:55;13.80;99.90
13462;DHT22;6803;45.264;5.468;2023-05-07T01:57:26;13.60;99.90
13462;DHT22;6803;45.264;5.468;2023-05-07T01:59:56;13.50;99.90
13462;DHT22;6803;45.264;5.468;2023-05-07T02:02:27;13.60;99.90
13462;DHT22;6803;45.264;5.468;2023-05-07T02:04:59;13.70;99.90
13462;DHT22;6803;45.264;5.468;2023-05-07T02:07:30;14.00;99.90
13462;DHT22;6803;45.264;5.468;2023-05-07T02:10:00;14.00;99.90
13462;DHT22;6803;45.264;5.468;2023-05-07T02:12:32;14.00;99.90
13462;DHT22;6803;45.264;5.468;2023-05-07T02:15:03;14.00;99.90
13462;DHT22;6803;45.264;5.468;2023-05-07T02:17:34;14.00;99.90
13462;DHT22;6803;45.264;5.468;2023-05-07T02:20:08;14.10;99.90
13462;DHT22;6803;45.264;5.468;2023-05-07T02:22:41;14.10;99.90
13462;DHT22;6803;45.264;5.468;2023-05-07T02:25:12;14.10;99.90
13462;DHT22;6803;45.264;5.468;2023-05-07T02:27:42;13.90;99.90
13462;DHT22;6803;45.264;5.468;2023-05-07T02:30:14;13.60;99.90
13462;DHT22;6803;45.264;5.468;2023-05-07T02:32:45;13.50;99.90
13462;DHT22;6803;45.264;5.468;2023-05-07T02:35:16;13.60;99.90
13462;DHT22;6803;45.264;5.468;2023-05-07T02:37:46;13.60;99.90
13462;DHT22;6803;45.264;5.468;2023-05-07T02:40:17;13.70;99.90
13462;DHT22;6803;45.264;5.468;2023-05-07T02:42:48;13.90;99.90
13462;DHT22;6803;45.264;5.468;2023-05-07T02:45:18;13.80;99.90
13462;DHT22;6803;45.264;5.468;2023-05-07T02:47:49;13.70;99.90
13462;DHT22;6803;45.264;5.468;2023-05-07T02:50:20;13.70;99.90
13462;DHT22;6803;45.264;5.468;2023-05-07T02:52:51;13.80;99.90
13462;DHT22;6803;45.264;5.468;2023-05-07T02:55:21;13.80;99.90
13462;DHT22;6803;45.264;5.468;2023-05-07T02:57:52;13.80;99.90
13462;DHT22;6803;45.264;5.468;2023-05-07T03:00:24;13.80;99.90
13462;DHT22;6803;45.264;5.468;2023-05-07T03:02:55;13.80;99.90
13462;DHT22;6803;45.264;5.468;2023-05-07T03:05:26;13.60;99.90
13462;DHT22;6803;45.264;5.468;2023-05-07T03:07:57;13.40;99.90
13462;DHT22;6803;45.264;5.468;2023-05-07T03:10:27;13.10;99.90
13462;DHT22;6803;45.264;5.468;2023-05-07T03:13:00;12.80;99.90
13462;DHT22;6803;45.264;5.468;2023-05-07T03:15:32;12.70;99.90
13462;DHT22;6803;45.264;5.468;2023-05-07T03:18:02;12.60;99.90
13462;DHT22;6803;45.264;5.468;2023-05-07T03:20:33;12.60;99.90
13462;DHT22;6803;45.264;5.468;2023-05-07T03:23:06;12.60;99.90
13462;DHT22;6803;45.264;5.468;2023-05-07T03:25:36;12.50;99.90
13462;DHT22;6803;45.264;5.468;2023-05-07T03:28:07;12.50;99.90
13462;DHT22;6803;45.264;5.468;2023-05-07T03:30:38;12.50;99.90
13462;DHT22;6803;45.264;5.468;2023-05-07T03:33:08;12.60;99.90
13462;DHT22;6803;45.264;5.468;2023-05-07T03:35:39;12.80;99.90
13462;DHT22;6803;45.264;5.468;2023-05-07T03:38:11;12.90;99.90
13462;DHT22;6803;45.264;5.468;2023-05-07T03:40:41;13.00;99.90
13462;DHT22;6803;45.264;5.468;2023-05-07T03:43:12;13.10;99.90
13462;DHT22;6803;45.264;5.468;2023-05-07T03:45:43;13.20;99.90
13462;DHT22;6803;45.264;5.468;2023-05-07T03:48:13;13.30;99.90
13462;DHT22;6803;45.264;5.468;2023-05-07T03:50:44;13.40;99.90
13462;DHT22;6803;45.264;5.468;2023-05-07T03:53:15;13.60;99.90
13462;DHT22;6803;45.264;5.468;2023-05-07T03:55:46;13.70;99.90
13462;DHT22;6803;45.264;5.468;2023-05-07T03:58:16;13.90;99.90
13462;DHT22;6803;45.264;5.468;2023-05-07T04:00:47;13.80;99.90
13462;DHT22;6803;45.264;5.468;2023-05-07T04:03:19;13.80;99.90
13462;DHT22;6803;45.264;5.468;2023-05-07T04:05:50;13.70;99.90
13462;DHT22;6803;45.264;5.468;2023-05-07T04:08:20;13.70;99.90
13462;DHT22;6803;45.264;5.468;2023-05-07T04:10:56;13.60;99.90
13462;DHT22;6803;45.264;5.468;2023-05-07T04:13:26;13.60;99.90
13462;DHT22;6803;45.264;5.468;2023-05-07T04:15:57;13.60;99.90
13462;DHT22;6803;45.264;5.468;2023-05-07T04:18:28;13.40;99.90
13462;DHT22;6803;45.264;5.468;2023-05-07T04:20:59;13.30;99.90
13462;DHT22;6803;45.264;5.468;2023-05-07T04:23:29;13.20;99.90
13462;DHT22;6803;45.264;5.468;2023-05-07T04:26:00;13.10;99.90
13462;DHT22;6803;45.264;5.468;2023-05-07T04:28:31;13.00;99.90
13462;DHT22;6803;45.264;5.468;2023-05-07T04:31:01;13.10;99.90
13462;DHT22;6803;45.264;5.468;2023-05-07T04:33:33;13.20;99.90
13462;DHT22;6803;45.264;5.468;2023-05-07T04:36:05;13.10;99.90
13462;DHT22;6803;45.264;5.468;2023-05-07T04:38:35;13.10;99.90
13462;DHT22;6803;45.264;5.468;2023-05-07T04:41:08;13.20;99.90
13462;DHT22;6803;45.264;5.468;2023-05-07T04:43:39;13.30;99.90
13462;DHT22;6803;45.264;5.468;2023-05-07T04:46:11;13.30;99.90
13462;DHT22;6803;45.264;5.468;2023-05-07T04:48:41;13.30;99.90
13462;DHT22;6803;45.264;5.468;2023-05-07T04:51:12;13.30;99.90
13462;DHT22;6803;45.264;5.468;2023-05-07T04:53:43;13.40;99.90
13462;DHT22;6803;45.264;5.468;2023-05-07T04:56:13;13.40;99.90
13462;DHT22;6803;45.264;5.468;2023-05-07T04:58:44;13.50;99.90
13462;DHT22;6803;45.264;5.468;2023-05-07T05:01:15;13.60;99.90
13462;DHT22;6803;45.264;5.468;2023-05-07T05:03:46;13.60;99.90
13462;DHT22;6803;45.264;5.468;2023-05-07T05:06:16;13.60;99.90
13462;DHT22;6803;45.264;5.468;2023-05-07T05:08:47;13.70;99.90
13462;DHT22;6803;45.264;5.468;2023-05-07T05:11:18;13.70;99.90
13462;DHT22;6803;45.264;5.468;2023-05-07T05:13:48;13.70;99.90
13462;DHT22;6803;45.264;5.468;2023-05-07T05:16:19;13.80;99.90
13462;DHT22;6803;45.264;5.468;2023-05-07T05:18:50;13.90;99.90
13462;DHT22;6803;45.264;5.468;2023-05-07T05:21:21;13.90;99.90
13462;DHT22;6803;45.264;5.468;2023-05-07T05:23:51;13.90;99.90
13462;DHT22;6803;45.264;5.468;2023-05-07T05:26:22;14.00;99.90
13462;DHT22;6803;45.264;5.468;2023-05-07T05:28:53;14.00;99.90
13462;DHT22;6803;45.264;5.468;2023-05-07T05:31:24;14.10;99.90
13462;DHT22;6803;45.264;5.468;2023-05-07T05:33:55;14.20;99.90
13462;DHT22;6803;45.264;5.468;2023-05-07T05:36:26;14.30;99.90
13462;DHT22;6803;45.264;5.468;2023-05-07T05:38:57;14.40;99.90
13462;DHT22;6803;45.264;5.468;2023-05-07T05:41:27;14.60;99.90
13462;DHT22;6803;45.264;5.468;2023-05-07T05:43:58;14.70;99.90
13462;DHT22;6803;45.264;5.468;2023-05-07T05:46:29;14.80;99.90
13462;DHT22;6803;45.264;5.468;2023-05-07T05:49:00;14.80;99.90
13462;DHT22;6803;45.264;5.468;2023-05-07T05:51:30;15.00;99.90
13462;DHT22;6803;45.264;5.468;2023-05-07T05:54:01;15.00;99.90
13462;DHT22;6803;45.264;5.468;2023-05-07T05:56:32;15.10;99.90
13462;DHT22;6803;45.264;5.468;2023-05-07T05:59:02;15.30;99.90
13462;DHT22;6803;45.264;5.468;2023-05-07T06:01:33;15.50;99.90
13462;DHT22;6803;45.264;5.468;2023-05-07T06:04:04;15.60;99.90
13462;DHT22;6803;45.264;5.468;2023-05-07T06:06:35;15.70;99.90
13462;DHT22;6803;45.264;5.468;2023-05-07T06:09:06;15.60;99.90
13462;DHT22;6803;45.264;5.468;2023-05-07T06:11:36;15.50;99.90
13462;DHT22;6803;45.264;5.468;2023-05-07T06:14:07;15.60;99.90
13462;DHT22;6803;45.264;5.468;2023-05-07T06:16:38;15.60;99.90
13462;DHT22;6803;45.264;5.468;2023-05-07T06:19:09;15.70;99.90
13462;DHT22;6803;45.264;5.468;2023-05-07T06:21:40;15.80;99.90
13462;DHT22;6803;45.264;5.468;2023-05-07T06:24:11;15.80;99.90
13462;DHT22;6803;45.264;5.468;2023-05-07T06:26:42;15.80;99.90
13462;DHT22;6803;45.264;5.468;2023-05-07T06:29:12;15.80;99.90
13462;DHT22;6803;45.264;5.468;2023-05-07T06:31:45;15.80;99.90
13462;DHT22;6803;45.264;5.468;2023-05-07T06:34:15;15.90;99.90
13462;DHT22;6803;45.264;5.468;2023-05-07T06:36:46;15.90;99.90
13462;DHT22;6803;45.264;5.468;2023-05-07T06:39:17;15.90;99.90
13462;DHT22;6803;45.264;5.468;2023-05-07T06:41:47;16.00;99.90
13462;DHT22;6803;45.264;5.468;2023-05-07T06:44:18;16.10;99.90
13462;DHT22;6803;45.264;5.468;2023-05-07T06:46:49;16.10;99.90
13462;DHT22;6803;45.264;5.468;2023-05-07T06:49:20;15.90;99.90
13462;DHT22;6803;45.264;5.468;2023-05-07T06:51:50;15.60;99.90
13462;DHT22;6803;45.264;5.468;2023-05-07T06:54:21;15.30;99.90
13462;DHT22;6803;45.264;5.468;2023-05-07T06:56:52;15.30;99.90
13462;DHT22;6803;45.264;5.468;2023-05-07T06:59:24;15.50;99.90
13462;DHT22;6803;45.264;5.468;2023-05-07T07:01:54;15.40;99.90
13462;DHT22;6803;45.264;5.468;2023-05-07T07:04:25;15.40;99.90
13462;DHT22;6803;45.264;5.468;2023-05-07T07:06:57;15.60;99.90
13462;DHT22;6803;45.264;5.468;2023-05-07T07:09:28;15.50;99.90
13462;DHT22;6803;45.264;5.468;2023-05-07T07:11:58;15.60;99.90
13462;DHT22;6803;45.264;5.468;2023-05-07T07:14:29;15.70;99.90
13462;DHT22;6803;45.264;5.468;2023-05-07T07:17:00;15.80;99.90
13462;DHT22;6803;45.264;5.468;2023-05-07T07:19:30;16.00;99.90
13462;DHT22;6803;45.264;5.468;2023-05-07T07:22:01;16.30;99.90
13462;DHT22;6803;45.264;5.468;2023-05-07T07:24:32;16.30;99.90
13462;DHT22;6803;45.264;5.468;2023-05-07T07:27:03;16.40;99.90
13462;DHT22;6803;45.264;5.468;2023-05-07T07:29:34;16.40;99.90
13462;DHT22;6803;45.264;5.468;2023-05-07T07:32:06;16.50;99.90
13462;DHT22;6803;45.264;5.468;2023-05-07T07:34:37;16.40;99.90
13462;DHT22;6803;45.264;5.468;2023-05-07T07:37:07;16.50;99.90
13462;DHT22;6803;45.264;5.468;2023-05-07T07:39:38;16.50;99.90
13462;DHT22;6803;45.264;5.468;2023-05-07T07:42:09;16.60;99.90
13462;DHT22;6803;45.264;5.468;2023-05-07T07:44:39;16.70;99.90
13462;DHT22;6803;45.264;5.468;2023-05-07T07:47:10;16.70;99.90
13462;DHT22;6803;45.264;5.468;2023-05-07T07:49:41;16.60;99.90
13462;DHT22;6803;45.264;5.468;2023-05-07T07:52:12;16.70;99.90
13462;DHT22;6803;45.264;5.468;2023-05-07T07:54:42;16.50;99.90
13462;DHT22;6803;45.264;5.468;2023-05-07T07:57:13;16.50;99.90
13462;DHT22;6803;45.264;5.468;2023-05-07T07:59:44;16.50;99.90
13462;DHT22;6803;45.264;5.468;2023-05-07T08:02:14;16.50;99.90
13462;DHT22;6803;45.264;5.468;2023-05-07T08:04:45;16.60;99.90
13462;DHT22;6803;45.264;5.468;2023-05-07T08:07:16;16.70;99.90
13462;DHT22;6803;45.264;5.468;2023-05-07T08:09:48;16.70;99.90
13462;DHT22;6803;45.264;5.468;2023-05-07T08:12:19;16.80;99.90
13462;DHT22;6803;45.264;5.468;2023-05-07T08:14:50;16.90;99.90
13462;DHT22;6803;45.264;5.468;2023-05-07T08:17:21;17.00;99.90
13462;DHT22;6803;45.264;5.468;2023-05-07T08:19:52;17.20;99.90
13462;DHT22;6803;45.264;5.468;2023-05-07T08:22:22;17.30;99.90
13462;DHT22;6803;45.264;5.468;2023-05-07T08:24:53;17.10;99.90
13462;DHT22;6803;45.264;5.468;2023-05-07T08:27:24;17.10;99.90
13462;DHT22;6803;45.264;5.468;2023-05-07T08:29:55;17.20;99.90
13462;DHT22;6803;45.264;5.468;2023-05-07T08:32:26;17.40;99.90
13462;DHT22;6803;45.264;5.468;2023-05-07T08:34:57;17.60;99.90
13462;DHT22;6803;45.264;5.468;2023-05-07T08:37:27;17.40;99.90
13462;DHT22;6803;45.264;5.468;2023-05-07T08:39:58;17.30;99.90
13462;DHT22;6803;45.264;5.468;2023-05-07T08:42:30;17.30;99.90
13462;DHT22;6803;45.264;5.468;2023-05-07T08:45:04;17.30;99.90
13462;DHT22;6803;45.264;5.468;2023-05-07T08:47:43;17.20;99.90
13462;DHT22;6803;45.264;5.468;2023-05-07T08:50:15;17.10;99.90
13462;DHT22;6803;45.264;5.468;2023-05-07T08:52:46;17.10;99.90
13462;DHT22;6803;45.264;5.468;2023-05-07T08:55:18;16.90;99.90
13462;DHT22;6803;45.264;5.468;2023-05-07T08:57:49;16.80;99.90
13462;DHT22;6803;45.264;5.468;2023-05-07T09:00:22;16.80;99.90
13462;DHT22;6803;45.264;5.468;2023-05-07T09:02:53;16.80;99.90
13462;DHT22;6803;45.264;5.468;2023-05-07T09:05:24;16.80;99.90
13462;DHT22;6803;45.264;5.468;2023-05-07T09:07:55;16.80;99.90
13462;DHT22;6803;45.264;5.468;2023-05-07T09:10:26;16.90;99.90
13462;DHT22;6803;45.264;5.468;2023-05-07T09:12:57;16.60;99.90
13462;DHT22;6803;45.264;5.468;2023-05-07T09:15:29;16.50;99.90
13462;DHT22;6803;45.264;5.468;2023-05-07T09:18:01;16.40;99.90
13462;DHT22;6803;45.264;5.468;2023-05-07T09:20:32;16.30;99.90
13462;DHT22;6803;45.264;5.468;2023-05-07T09:23:03;16.20;99.90
13462;DHT22;6803;45.264;5.468;2023-05-07T09:25:34;16.10;99.90
13462;DHT22;6803;45.264;5.468;2023-05-07T09:28:05;16.00;99.90
13462;DHT22;6803;45.264;5.468;2023-05-07T09:30:38;15.80;99.90
13462;DHT22;6803;45.264;5.468;2023-05-07T09:33:09;15.80;99.90
13462;DHT22;6803;45.264;5.468;2023-05-07T09:35:40;15.70;99.90
13462;DHT22;6803;45.264;5.468;2023-05-07T09:38:11;15.70;99.90
13462;DHT22;6803;45.264;5.468;2023-05-07T09:40:43;15.50;99.90
13462;DHT22;6803;45.264;5.468;2023-05-07T09:43:14;15.60;99.90
13462;DHT22;6803;45.264;5.468;2023-05-07T09:45:45;15.50;99.90
13462;DHT22;6803;45.264;5.468;2023-05-07T09:48:19;15.60;99.90
13462;DHT22;6803;45.264;5.468;2023-05-07T09:50:52;15.60;99.90
13462;DHT22;6803;45.264;5.468;2023-05-07T09:53:24;15.60;99.90
13462;DHT22;6803;45.264;5.468;2023-05-07T09:55:56;15.50;99.90
13462;DHT22;6803;45.264;5.468;2023-05-07T09:58:28;15.40;99.90
13462;DHT22;6803;45.264;5.468;2023-05-07T10:01:00;15.30;99.90
13462;DHT22;6803;45.264;5.468;2023-05-07T10:03:32;15.10;99.90
13462;DHT22;6803;45.264;5.468;2023-05-07T10:06:04;15.10;99.90
13462;DHT22;6803;45.264;5.468;2023-05-07T10:08:36;15.10;99.90
13462;DHT22;6803;45.264;5.468;2023-05-07T10:11:07;15.20;99.90
13462;DHT22;6803;45.264;5.468;2023-05-07T10:13:39;15.30;99.90
13462;DHT22;6803;45.264;5.468;2023-05-07T10:16:10;15.30;99.90
13462;DHT22;6803;45.264;5.468;2023-05-07T10:18:41;15.50;99.90
13462;DHT22;6803;45.264;5.468;2023-05-07T10:21:16;15.50;99.90
13462;DHT22;6803;45.264;5.468;2023-05-07T10:23:49;15.50;99.90
13462;DHT22;6803;45.264;5.468;2023-05-07T10:26:21;15.50;99.90
13462;DHT22;6803;45.264;5.468;2023-05-07T10:28:55;15.50;99.90
13462;DHT22;6803;45.264;5.468;2023-05-07T10:31:41;15.50;99.90
13462;DHT22;6803;45.264;5.468;2023-05-07T10:34:14;15.50;99.90
13462;DHT22;6803;45.264;5.468;2023-05-07T10:36:46;15.50;99.90
13462;DHT22;6803;45.264;5.468;2023-05-07T10:39:17;15.60;99.90
13462;DHT22;6803;45.264;5.468;2023-05-07T10:41:48;15.60;99.90
13462;DHT22;6803;45.264;5.468;2023-05-07T10:44:28;15.60;99.90
13462;DHT22;6803;45.264;5.468;2023-05-07T10:47:07;15.50;99.90
13462;DHT22;6803;45.264;5.468;2023-05-07T10:52:42;15.60;99.90
13462;DHT22;6803;45.264;5.468;2023-05-07T10:55:23;15.60;99.90
13462;DHT22;6803;45.264;5.468;2023-05-07T10:57:55;15.70;99.90
13462;DHT22;6803;45.264;5.468;2023-05-07T11:00:44;15.70;99.90
13462;DHT22;6803;45.264;5.468;2023-05-07T11:03:15;15.70;99.90
13462;DHT22;6803;45.264;5.468;2023-05-07T11:05:45;15.70;99.90
13462;DHT22;6803;45.264;5.468;2023-05-07T11:08:16;15.80;99.90
13462;DHT22;6803;45.264;5.468;2023-05-07T11:10:51;15.80;99.90
13462;DHT22;6803;45.264;5.468;2023-05-07T11:13:41;15.80;99.90
13462;DHT22;6803;45.264;5.468;2023-05-07T11:16:23;15.70;99.90
13462;DHT22;6803;45.264;5.468;2023-05-07T11:18:55;15.80;99.90
13462;DHT22;6803;45.264;5.468;2023-05-07T11:21:36;15.80;99.90
13462;DHT22;6803;45.264;5.468;2023-05-07T11:24:08;15.80;99.90
13462;DHT22;6803;45.264;5.468;2023-05-07T11:26:45;15.90;99.90
13462;DHT22;6803;45.264;5.468;2023-05-07T11:29:17;15.80;99.90
13462;DHT22;6803;45.264;5.468;2023-05-07T11:31:50;15.80;99.90
13462;DHT22;6803;45.264;5.468;2023-05-07T11:34:26;15.80;99.90
13462;DHT22;6803;45.264;5.468;2023-05-07T11:36:57;15.90;99.90
13462;DHT22;6803;45.264;5.468;2023-05-07T11:39:30;16.00;99.90
13462;DHT22;6803;45.264;5.468;2023-05-07T11:42:02;16.10;99.90
13462;DHT22;6803;45.264;5.468;2023-05-07T11:44:45;16.10;99.90
13462;DHT22;6803;45.264;5.468;2023-05-07T11:47:21;16.10;99.90
13462;DHT22;6803;45.264;5.468;2023-05-07T11:49:53;16.10;99.90
13462;DHT22;6803;45.264;5.468;2023-05-07T11:52:25;16.10;99.90
13462;DHT22;6803;45.264;5.468;2023-05-07T11:54:57;16.10;99.90
13462;DHT22;6803;45.264;5.468;2023-05-07T11:57:29;16.30;99.90
13462;DHT22;6803;45.264;5.468;2023-05-07T12:00:00;16.30;99.90
13462;DHT22;6803;45.264;5.468;2023-05-07T12:02:33;16.40;99.90
13462;DHT22;6803;45.264;5.468;2023-05-07T12:05:05;16.40;99.90
13462;DHT22;6803;45.264;5.468;2023-05-07T12:07:36;16.50;99.90
13462;DHT22;6803;45.264;5.468;2023-05-07T12:10:09;16.50;99.90
13462;DHT22;6803;45.264;5.468;2023-05-07T12:12:45;16.50;99.90
13462;DHT22;6803;45.264;5.468;2023-05-07T12:15:16;16.70;99.90
13462;DHT22;6803;45.264;5.468;2023-05-07T12:17:47;16.60;99.90
13462;DHT22;6803;45.264;5.468;2023-05-07T12:20:19;16.90;99.90
13462;DHT22;6803;45.264;5.468;2023-05-07T12:22:51;17.00;99.90
13462;DHT22;6803;45.264;5.468;2023-05-07T12:25:22;17.10;99.90
13462;DHT22;6803;45.264;5.468;2023-05-07T12:27:53;17.20;99.90
13462;DHT22;6803;45.264;5.468;2023-05-07T12:30:24;17.20;99.90
13462;DHT22;6803;45.264;5.468;2023-05-07T12:32:55;17.20;99.90
13462;DHT22;6803;45.264;5.468;2023-05-07T12:35:30;17.20;99.90
13462;DHT22;6803;45.264;5.468;2023-05-07T12:38:00;17.40;99.90
13462;DHT22;6803;45.264;5.468;2023-05-07T12:40:40;17.20;99.90
13462;DHT22;6803;45.264;5.468;2023-05-07T12:43:17;17.20;99.90
13462;DHT22;6803;45.264;5.468;2023-05-07T12:45:50;17.20;99.90
13462;DHT22;6803;45.264;5.468;2023-05-07T12:48:22;17.20;99.90
13462;DHT22;6803;45.264;5.468;2023-05-07T12:50:54;17.10;99.90
13462;DHT22;6803;45.264;5.468;2023-05-07T12:53:27;16.90;99.90
13462;DHT22;6803;45.264;5.468;2023-05-07T12:55:59;16.90;99.90
13462;DHT22;6803;45.264;5.468;2023-05-07T12:58:31;16.70;99.90
13462;DHT22;6803;45.264;5.468;2023-05-07T13:01:05;16.60;99.90
13462;DHT22;6803;45.264;5.468;2023-05-07T13:03:37;16.50;99.90
13462;DHT22;6803;45.264;5.468;2023-05-07T13:06:10;16.50;99.90
13462;DHT22;6803;45.264;5.468;2023-05-07T13:08:42;16.50;99.90
13462;DHT22;6803;45.264;5.468;2023-05-07T13:11:14;16.40;99.90
13462;DHT22;6803;45.264;5.468;2023-05-07T13:13:44;16.50;99.90
13462;DHT22;6803;45.264;5.468;2023-05-07T13:16:15;16.50;99.90
13462;DHT22;6803;45.264;5.468;2023-05-07T13:18:47;16.40;99.90
13462;DHT22;6803;45.264;5.468;2023-05-07T13:21:18;16.40;99.90
13462;DHT22;6803;45.264;5.468;2023-05-07T13:23:49;16.40;99.90
13462;DHT22;6803;45.264;5.468;2023-05-07T13:26:20;16.40;99.90
13462;DHT22;6803;45.264;5.468;2023-05-07T13:28:52;16.50;99.90
13462;DHT22;6803;45.264;5.468;2023-05-07T13:31:23;16.40;99.90
13462;DHT22;6803;45.264;5.468;2023-05-07T13:33:54;16.40;99.90
13462;DHT22;6803;45.264;5.468;2023-05-07T13:36:25;16.40;99.90
13462;DHT22;6803;45.264;5.468;2023-05-07T13:38:57;16.30;99.90
13462;DHT22;6803;45.264;5.468;2023-05-07T13:41:29;16.20;99.90
13462;DHT22;6803;45.264;5.468;2023-05-07T13:44:00;16.20;99.90
13462;DHT22;6803;45.264;5.468;2023-05-07T13:46:31;16.30;99.90
13462;DHT22;6803;45.264;5.468;2023-05-07T13:49:02;16.40;99.90
13462;DHT22;6803;45.264;5.468;2023-05-07T13:51:32;16.40;99.90
13462;DHT22;6803;45.264;5.468;2023-05-07T13:54:04;16.30;99.90
13462;DHT22;6803;45.264;5.468;2023-05-07T13:56:35;16.30;99.90
13462;DHT22;6803;45.264;5.468;2023-05-07T13:59:05;16.30;99.90
13462;DHT22;6803;45.264;5.468;2023-05-07T14:01:36;16.10;99.90
13462;DHT22;6803;45.264;5.468;2023-05-07T14:04:07;16.20;99.90
13462;DHT22;6803;45.264;5.468;2023-05-07T14:06:37;16.40;99.90
13462;DHT22;6803;45.264;5.468;2023-05-07T14:09:08;16.40;99.90
13462;DHT22;6803;45.264;5.468;2023-05-07T14:11:41;16.50;99.90
13462;DHT22;6803;45.264;5.468;2023-05-07T14:14:11;16.60;99.90
13462;DHT22;6803;45.264;5.468;2023-05-07T14:16:42;16.60;99.90
13462;DHT22;6803;45.264;5.468;2023-05-07T14:19:13;16.70;99.90
13462;DHT22;6803;45.264;5.468;2023-05-07T14:21:44;16.90;99.90
13462;DHT22;6803;45.264;5.468;2023-05-07T14:24:14;16.90;99.90
13462;DHT22;6803;45.264;5.468;2023-05-07T14:26:46;16.80;99.90
13462;DHT22;6803;45.264;5.468;2023-05-07T14:29:17;16.80;99.90
13462;DHT22;6803;45.264;5.468;2023-05-07T14:31:50;16.70;99.90
13462;DHT22;6803;45.264;5.468;2023-05-07T14:34:21;16.70;99.90
13462;DHT22;6803;45.264;5.468;2023-05-07T14:36:51;16.70;99.90
13462;DHT22;6803;45.264;5.468;2023-05-07T14:39:22;16.50;99.90
13462;DHT22;6803;45.264;5.468;2023-05-07T14:41:53;16.40;99.90
13462;DHT22;6803;45.264;5.468;2023-05-07T14:44:25;16.10;99.90
13462;DHT22;6803;45.264;5.468;2023-05-07T14:46:59;16.00;99.90
13462;DHT22;6803;45.264;5.468;2023-05-07T14:49:30;16.00;99.90
13462;DHT22;6803;45.264;5.468;2023-05-07T14:52:02;15.90;99.90
13462;DHT22;6803;45.264;5.468;2023-05-07T14:54:36;15.90;99.90
13462;DHT22;6803;45.264;5.468;2023-05-07T14:57:10;16.00;99.90
13462;DHT22;6803;45.264;5.468;2023-05-07T14:59:43;16.10;99.90
13462;DHT22;6803;45.264;5.468;2023-05-07T15:02:15;16.10;99.90
13462;DHT22;6803;45.264;5.468;2023-05-07T15:04:48;16.10;99.90
13462;DHT22;6803;45.264;5.468;2023-05-07T15:07:19;16.10;99.90
13462;DHT22;6803;45.264;5.468;2023-05-07T15:09:50;16.10;99.90
13462;DHT22;6803;45.264;5.468;2023-05-07T15:12:21;15.90;99.90
13462;DHT22;6803;45.264;5.468;2023-05-07T15:14:52;16.00;99.90
13462;DHT22;6803;45.264;5.468;2023-05-07T15:17:23;15.80;99.90
13462;DHT22;6803;45.264;5.468;2023-05-07T15:19:54;15.70;99.90
13462;DHT22;6803;45.264;5.468;2023-05-07T15:22:25;15.70;99.90
13462;DHT22;6803;45.264;5.468;2023-05-07T15:24:58;15.60;99.90
13462;DHT22;6803;45.264;5.468;2023-05-07T15:27:28;15.70;99.90
13462;DHT22;6803;45.264;5.468;2023-05-07T15:29:59;15.70;99.90
13462;DHT22;6803;45.264;5.468;2023-05-07T15:32:30;15.70;99.90
13462;DHT22;6803;45.264;5.468;2023-05-07T15:35:01;15.90;99.90
13462;DHT22;6803;45.264;5.468;2023-05-07T15:37:33;15.80;99.90
13462;DHT22;6803;45.264;5.468;2023-05-07T15:40:06;15.80;99.90
13462;DHT22;6803;45.264;5.468;2023-05-07T15:42:37;15.70;99.90
13462;DHT22;6803;45.264;5.468;2023-05-07T15:45:11;15.60;99.90
13462;DHT22;6803;45.264;5.468;2023-05-07T15:47:42;15.60;99.90
13462;DHT22;6803;45.264;5.468;2023-05-07T15:50:13;15.70;99.90
13462;DHT22;6803;45.264;5.468;2023-05-07T15:52:44;15.80;99.90
13462;DHT22;6803;45.264;5.468;2023-05-07T15:55:15;15.70;99.90
13462;DHT22;6803;45.264;5.468;2023-05-07T15:57:46;15.70;99.90
13462;DHT22;6803;45.264;5.468;2023-05-07T16:00:18;15.80;99.90
13462;DHT22;6803;45.264;5.468;2023-05-07T16:02:49;15.70;99.90
13462;DHT22;6803;45.264;5.468;2023-05-07T16:05:20;15.70;99.90
13462;DHT22;6803;45.264;5.468;2023-05-07T16:07:51;15.70;99.90
13462;DHT22;6803;45.264;5.468;2023-05-07T16:10:23;15.70;99.90
13462;DHT22;6803;45.264;5.468;2023-05-07T16:12:55;15.80;99.90
13462;DHT22;6803;45.264;5.468;2023-05-07T16:15:27;15.90;99.90